createdAt,value
2023-04-15T00:00:23.099Z,9.33
2023-04-15T00:02:44.881Z,7.77
2023-04-15T00:05:07.142Z,8.07
2023-04-15T00:07:29.667Z,13.53
2023-04-15T00:09:55.165Z,7.70
2023-04-15T00:12:17.098Z,10.63
2023-04-15T00:14:40.072Z,8.90
2023-04-15T00:17:01.875Z,8.23
2023-04-15T00:19:24.692Z,10.43
2023-04-15T00:21:46.400Z,8.30
2023-04-15T00:24:08.418Z,7.63
2023-04-15T00:26:30.254Z,9.67
2023-04-15T00:28:52.220Z,7.90
2023-04-15T00:31:14.315Z,9.30
2023-04-15T00:33:36.793Z,8.53
2023-04-15T00:35:59.372Z,8.93
2023-04-15T00:38:21.063Z,7.87
2023-04-15T00:40:43.587Z,7.77
2023-04-15T00:43:05.743Z,7.83
2023-04-15T00:45:28.673Z,9.43
2023-04-15T00:47:51.978Z,8.73
2023-04-15T00:50:14.151Z,10.07
2023-04-15T00:52:36.229Z,10.43
2023-04-15T00:54:57.962Z,8.37
2023-04-15T00:57:22.483Z,7.60
2023-04-15T01:02:08.597Z,7.00
2023-04-15T01:04:31.060Z,9.47
2023-04-15T01:06:53.140Z,10.30
2023-04-15T01:09:15.381Z,9.50
2023-04-15T01:11:37.584Z,7.93
2023-04-15T01:13:59.999Z,11.67
2023-04-15T01:16:22.150Z,10.20
2023-04-15T01:18:44.761Z,10.30
2023-04-15T01:21:07.990Z,8.17
2023-04-15T01:23:30.079Z,7.80
2023-04-15T01:25:53.560Z,10.53
2023-04-15T01:28:16.092Z,9.97
2023-04-15T01:30:38.484Z,8.80
2023-04-15T01:33:00.267Z,7.60
2023-04-15T01:35:22.614Z,8.33
2023-04-15T01:37:47.266Z,7.63
2023-04-15T01:40:12.150Z,8.83
2023-04-15T01:42:37.886Z,10.13
2023-04-15T01:44:59.631Z,7.37
2023-04-15T01:47:21.622Z,9.27
2023-04-15T01:49:44.010Z,9.47
2023-04-15T01:52:05.862Z,11.07
2023-04-15T01:54:28.432Z,7.53
2023-04-15T01:56:50.628Z,10.80
2023-04-15T01:59:14.057Z,9.57
2023-04-15T02:01:35.762Z,10.57
2023-04-15T02:03:57.985Z,11.73
2023-04-15T02:06:20.171Z,11.50
2023-04-15T02:08:43.394Z,10.67
2023-04-15T02:11:05.194Z,9.40
2023-04-15T02:13:27.077Z,9.07
2023-04-15T02:15:52.665Z,8.88
2023-04-15T02:18:16.756Z,11.55
2023-04-15T02:20:39.630Z,9.57
2023-04-15T02:23:01.981Z,10.43
2023-04-15T02:25:23.808Z,11.97
2023-04-15T02:27:46.109Z,9.23
2023-04-15T02:30:08.405Z,9.07
2023-04-15T02:32:30.285Z,10.73
2023-04-15T02:34:52.591Z,7.97
2023-04-15T02:37:14.733Z,8.93
2023-04-15T02:39:36.391Z,11.23
2023-04-15T02:42:00.120Z,12.50
2023-04-15T02:44:23.459Z,10.23
2023-04-15T02:46:50.839Z,10.73
2023-04-15T02:49:12.413Z,10.73
2023-04-15T02:51:34.014Z,10.87
2023-04-15T02:53:56.608Z,10.83
2023-04-15T02:56:19.469Z,12.33
2023-04-15T02:58:42.871Z,9.47
2023-04-15T03:01:05.071Z,12.77
2023-04-15T03:03:28.288Z,10.07
2023-04-15T03:05:49.985Z,10.53
2023-04-15T03:08:12.607Z,10.93
2023-04-15T03:10:34.248Z,13.07
2023-04-15T03:12:56.802Z,9.57
2023-04-15T03:15:19.502Z,10.27
2023-04-15T03:17:44.507Z,11.60
2023-04-15T03:20:08.029Z,12.27
2023-04-15T03:22:30.001Z,10.68
2023-04-15T03:24:52.236Z,11.30
2023-04-15T03:27:14.182Z,13.13
2023-04-15T03:29:36.677Z,12.47
2023-04-15T03:31:58.469Z,10.37
2023-04-15T03:34:21.466Z,11.23
2023-04-15T03:36:43.363Z,12.60
2023-04-15T03:39:05.560Z,9.87
2023-04-15T03:41:27.154Z,12.77
2023-04-15T03:43:48.754Z,10.93
2023-04-15T03:46:10.695Z,12.60
2023-04-15T03:48:32.384Z,11.33
2023-04-15T03:50:54.114Z,13.47
2023-04-15T03:53:16.486Z,10.10
2023-04-15T03:55:38.361Z,11.70
2023-04-15T03:58:00.210Z,10.53
2023-04-15T04:00:22.151Z,15.50
2023-04-15T04:02:46.232Z,11.00
2023-04-15T04:05:08.899Z,10.93
2023-04-15T04:07:31.003Z,11.37
2023-04-15T04:09:52.803Z,12.40
2023-04-15T04:12:14.488Z,11.57
2023-04-15T04:14:36.118Z,13.40
2023-04-15T04:16:57.837Z,11.63
2023-04-15T04:19:20.319Z,11.90
2023-04-15T04:21:41.965Z,13.57
2023-04-15T04:24:03.704Z,12.97
2023-04-15T04:26:25.478Z,13.30
2023-04-15T04:28:47.084Z,12.50
2023-04-15T04:31:08.953Z,13.33
2023-04-15T04:33:30.718Z,11.33
2023-04-15T04:35:52.492Z,11.77
2023-04-15T04:38:14.446Z,11.13
2023-04-15T04:40:36.464Z,13.27
2023-04-15T04:42:58.729Z,11.50
2023-04-15T04:45:20.920Z,12.33
2023-04-15T04:47:43.050Z,13.47
2023-04-15T04:50:05.621Z,11.43
2023-04-15T04:52:27.387Z,12.40
2023-04-15T04:54:49.089Z,13.03
2023-04-15T04:57:10.856Z,13.73
2023-04-15T04:59:33.208Z,13.17
2023-04-15T05:01:56.081Z,14.37
2023-04-15T05:04:18.230Z,15.23
2023-04-15T05:06:40.850Z,12.30
2023-04-15T05:09:03.757Z,14.23
2023-04-15T05:11:26.151Z,13.80
2023-04-15T05:13:48.740Z,12.50
2023-04-15T05:16:11.999Z,11.77
2023-04-15T05:18:34.686Z,13.70
2023-04-15T05:20:57.567Z,14.73
2023-04-15T05:23:19.744Z,11.07
2023-04-15T05:25:42.105Z,12.63
2023-04-15T05:28:04.226Z,14.23
2023-04-15T05:30:26.778Z,10.97
2023-04-15T05:32:48.860Z,12.43
2023-04-15T05:35:10.900Z,13.27
2023-04-15T05:37:33.358Z,14.40
2023-04-15T05:39:55.452Z,13.17
2023-04-15T05:42:17.917Z,14.20
2023-04-15T05:44:40.392Z,13.77
2023-04-15T05:47:04.019Z,11.97
2023-04-15T05:49:26.515Z,12.48
2023-04-15T05:51:49.039Z,12.73
2023-04-15T05:54:11.254Z,13.30
2023-04-15T05:56:33.700Z,12.10
2023-04-15T05:58:55.941Z,12.47
2023-04-15T06:01:18.722Z,14.17
2023-04-15T06:03:41.125Z,15.77
2023-04-15T06:06:03.677Z,13.77
2023-04-15T06:08:25.274Z,12.77
2023-04-15T06:10:47.213Z,16.23
2023-04-15T06:13:08.953Z,12.70
2023-04-15T06:15:31.253Z,17.00
2023-04-15T06:17:52.904Z,15.10
2023-04-15T06:20:14.848Z,14.37
2023-04-15T06:22:38.022Z,14.17
2023-04-15T06:24:59.749Z,14.90
2023-04-15T06:27:23.018Z,13.97
2023-04-15T06:29:44.887Z,15.47
2023-04-15T06:32:06.896Z,15.23
2023-04-15T06:34:28.506Z,15.33
2023-04-15T06:36:50.237Z,16.07
2023-04-15T06:39:11.853Z,15.40
2023-04-15T06:41:34.232Z,15.27
2023-04-15T06:43:55.974Z,15.50
2023-04-15T06:46:17.595Z,16.03
2023-04-15T06:48:39.297Z,15.27
2023-04-15T06:51:01.215Z,15.27
2023-04-15T06:53:22.972Z,15.87
2023-04-15T06:55:44.702Z,13.70
2023-04-15T06:58:06.415Z,15.30
2023-04-15T07:00:28.751Z,17.20
2023-04-15T07:02:51.458Z,14.60
2023-04-15T07:05:13.184Z,15.57
2023-04-15T07:07:35.080Z,18.17
2023-04-15T07:09:57.208Z,16.70
2023-04-15T07:12:18.955Z,15.70
2023-04-15T07:14:40.572Z,16.33
2023-04-15T07:17:02.691Z,14.53
2023-04-15T07:19:24.502Z,16.87
2023-04-15T07:21:47.674Z,14.63
2023-04-15T07:24:10.505Z,15.23
2023-04-15T07:26:32.205Z,14.40
2023-04-15T07:28:53.845Z,14.87
2023-04-15T07:31:16.585Z,14.03
2023-04-15T07:33:38.428Z,14.57
2023-04-15T07:36:00.147Z,13.07
2023-04-15T07:38:22.172Z,12.73
2023-04-15T07:40:44.025Z,12.63
2023-04-15T07:43:05.991Z,13.37
2023-04-15T07:45:27.836Z,12.63
2023-04-15T07:47:50.909Z,15.60
2023-04-15T07:50:12.592Z,15.47
2023-04-15T07:52:39.109Z,14.10
2023-04-15T07:55:00.841Z,14.00
2023-04-15T07:57:22.574Z,11.93
2023-04-15T07:59:44.153Z,13.53
2023-04-15T08:02:05.843Z,13.77
2023-04-15T08:04:28.178Z,13.90
2023-04-15T08:06:50.328Z,13.33
2023-04-15T08:09:11.975Z,13.23
2023-04-15T08:11:33.817Z,11.83
2023-04-15T08:13:55.501Z,12.73
2023-04-15T08:16:23.525Z,11.90
2023-04-15T08:18:47.383Z,8.90
2023-04-15T08:21:09.406Z,9.65
2023-04-15T08:23:32.784Z,10.77
2023-04-15T08:25:54.463Z,10.53
2023-04-15T08:28:17.290Z,9.77
2023-04-15T08:30:38.936Z,10.07
2023-04-15T08:33:00.751Z,9.87
2023-04-15T08:35:22.383Z,10.70
2023-04-15T08:37:44.084Z,10.77
2023-04-15T08:40:06.908Z,10.10
2023-04-15T08:42:36.948Z,8.87
2023-04-15T08:45:01.776Z,10.30
2023-04-15T08:47:31.712Z,7.90
2023-04-15T08:49:55.629Z,8.73
2023-04-15T08:52:17.572Z,7.50
2023-04-15T08:54:39.819Z,7.10
2023-04-15T08:57:02.540Z,7.00
2023-04-15T08:59:24.478Z,7.03
2023-04-15T09:01:46.500Z,8.17
2023-04-15T09:04:08.900Z,6.33
2023-04-15T09:06:31.098Z,6.60
2023-04-15T09:08:53.198Z,7.87
2023-04-15T09:11:14.840Z,6.43
2023-04-15T09:13:37.005Z,6.53
2023-04-15T09:15:58.699Z,6.57
2023-04-15T09:18:32.476Z,6.97
2023-04-15T09:20:54.296Z,4.40
2023-04-15T09:23:17.557Z,5.00
2023-04-15T09:25:42.520Z,5.83
2023-04-15T09:28:04.664Z,5.00
2023-04-15T09:30:28.974Z,5.63
2023-04-15T09:32:54.158Z,7.05
2023-04-15T09:35:15.971Z,6.20
2023-04-15T09:37:37.685Z,5.23
2023-04-15T09:39:59.327Z,5.47
2023-04-15T09:42:24.623Z,4.30
2023-04-15T09:44:46.552Z,4.40
2023-04-15T09:47:08.149Z,4.43
2023-04-15T09:49:29.873Z,3.50
2023-04-15T09:52:01.702Z,3.30
2023-04-15T09:54:36.929Z,3.93
2023-04-15T09:57:06.405Z,3.97
2023-04-15T09:59:28.278Z,3.47
2023-04-15T10:01:50.609Z,4.83
2023-04-15T10:04:12.901Z,4.93
2023-04-15T10:06:35.846Z,4.17
2023-04-15T10:08:59.007Z,3.97
2023-04-15T10:11:24.043Z,5.47
2023-04-15T10:13:48.617Z,4.27
2023-04-15T10:18:42.701Z,4.60
2023-04-15T10:21:06.058Z,4.23
2023-04-15T10:23:28.177Z,3.60
2023-04-15T10:25:54.566Z,4.60
2023-04-15T10:28:17.038Z,3.40
2023-04-15T10:30:38.866Z,3.37
2023-04-15T10:33:06.025Z,4.00
2023-04-15T10:35:30.772Z,5.20
2023-04-15T10:37:52.547Z,4.23
2023-04-15T10:40:34.596Z,5.60
2023-04-15T10:42:56.952Z,5.17
2023-04-15T10:45:19.400Z,4.13
2023-04-15T10:47:43.841Z,4.60
2023-04-15T10:52:29.419Z,5.07
2023-04-15T10:55:16.077Z,4.43
2023-04-15T10:57:40.735Z,4.73
2023-04-15T11:00:12.847Z,4.97
2023-04-15T11:02:53.384Z,3.30
2023-04-15T11:05:17.563Z,3.77
2023-04-15T11:07:52.737Z,6.88
2023-04-15T11:10:14.299Z,3.50
2023-04-15T11:12:37.241Z,4.17
2023-04-15T11:14:58.995Z,3.90
2023-04-15T11:17:29.033Z,4.30
2023-04-15T11:19:51.165Z,4.33
2023-04-15T11:22:12.995Z,3.40
2023-04-15T11:24:34.806Z,3.40
2023-04-15T11:27:01.923Z,3.87
2023-04-15T11:29:31.310Z,4.60
2023-04-15T11:31:52.926Z,4.33
2023-04-15T11:34:22.999Z,3.73
2023-04-15T11:36:44.720Z,2.90
2023-04-15T11:39:07.559Z,3.30
2023-04-15T11:41:29.358Z,3.37
2023-04-15T11:43:52.372Z,4.03
2023-04-15T11:46:14.143Z,3.63
2023-04-15T11:48:36.794Z,4.03
2023-04-15T11:51:05.292Z,4.40
2023-04-15T11:53:56.870Z,4.03
2023-04-15T11:56:22.057Z,3.63
2023-04-15T11:58:44.778Z,4.33
2023-04-15T12:01:07.588Z,2.97
2023-04-15T12:03:50.374Z,4.07
2023-04-15T12:06:21.281Z,3.20
2023-04-15T12:08:55.817Z,4.13
2023-04-15T12:11:19.340Z,2.80
2023-04-15T12:13:47.016Z,4.00
2023-04-15T12:16:08.817Z,3.83
2023-04-15T12:18:30.678Z,2.93
2023-04-15T12:20:52.492Z,3.63
2023-04-15T12:23:20.126Z,3.90
2023-04-15T12:25:42.023Z,2.77
2023-04-15T12:28:12.100Z,3.27
2023-04-15T12:30:34.162Z,3.90
2023-04-15T12:32:56.684Z,2.80
2023-04-15T12:35:21.603Z,5.00
2023-04-15T12:37:43.289Z,3.13
2023-04-15T12:40:08.921Z,3.30
2023-04-15T12:42:30.602Z,4.47
2023-04-15T12:44:52.274Z,2.83
2023-04-15T12:47:14.603Z,2.90
2023-04-15T12:49:36.408Z,2.97
2023-04-15T12:52:00.742Z,2.77
2023-04-15T12:54:23.434Z,2.08
2023-04-15T12:56:48.277Z,2.77
2023-04-15T12:59:10.072Z,2.77
2023-04-15T13:01:32.097Z,1.80
2023-04-15T13:03:54.215Z,1.77
2023-04-15T13:06:16.183Z,2.63
2023-04-15T13:08:42.585Z,2.47
2023-04-15T13:11:07.275Z,2.57
2023-04-15T13:13:29.126Z,1.50
2023-04-15T13:15:51.109Z,1.40
2023-04-15T13:18:13.191Z,2.87
2023-04-15T13:20:34.968Z,1.70
2023-04-15T13:22:56.921Z,2.83
2023-04-15T13:25:19.541Z,2.63
2023-04-15T13:27:41.278Z,2.83
2023-04-15T13:30:03.838Z,2.30
2023-04-15T13:32:26.465Z,3.47
2023-04-15T13:34:48.249Z,2.67
2023-04-15T13:37:10.016Z,3.60
2023-04-15T13:39:32.056Z,2.90
2023-04-15T13:41:53.781Z,3.23
2023-04-15T13:44:15.549Z,2.83
2023-04-15T13:46:39.603Z,3.03
2023-04-15T13:49:01.371Z,2.50
2023-04-15T13:51:23.201Z,1.97
2023-04-15T13:53:45.282Z,1.47
2023-04-15T13:56:08.791Z,1.67
2023-04-15T13:58:31.307Z,1.55
2023-04-15T14:00:53.320Z,1.83
2023-04-15T14:03:15.332Z,2.10
2023-04-15T14:05:38.108Z,1.53
2023-04-15T14:08:00.600Z,2.57
2023-04-15T14:10:22.479Z,1.97
2023-04-15T14:12:44.347Z,2.07
2023-04-15T14:15:06.992Z,1.73
2023-04-15T14:17:29.354Z,1.77
2023-04-15T14:19:51.377Z,1.37
2023-04-15T14:22:13.791Z,2.47
2023-04-15T14:24:36.894Z,1.70
2023-04-15T14:27:00.269Z,1.73
2023-04-15T14:29:22.992Z,1.40
2023-04-15T14:32:03.927Z,1.30
2023-04-15T14:34:27.457Z,1.50
2023-04-15T14:36:49.899Z,2.93
2023-04-15T14:39:14.395Z,2.40
2023-04-15T14:41:37.199Z,2.63
2023-04-15T14:43:59.816Z,0.90
2023-04-15T14:46:22.829Z,2.30
2023-04-15T14:48:45.637Z,2.50
2023-04-15T14:51:07.680Z,1.10
2023-04-15T14:53:29.867Z,2.93
2023-04-15T14:55:52.064Z,1.50
2023-04-15T14:58:14.029Z,1.40
2023-04-15T15:00:40.819Z,0.93
2023-04-15T15:03:03.240Z,1.33
2023-04-15T15:05:26.277Z,3.47
2023-04-15T15:07:48.539Z,1.37
2023-04-15T15:10:10.969Z,2.20
2023-04-15T15:12:33.716Z,3.00
2023-04-15T15:14:56.074Z,1.83
2023-04-15T15:17:18.659Z,2.90
2023-04-15T15:19:40.669Z,2.97
2023-04-15T15:22:03.736Z,2.53
2023-04-15T15:24:25.606Z,3.90
2023-04-15T15:26:47.443Z,3.77
2023-04-15T15:29:09.476Z,2.80
2023-04-15T15:31:31.407Z,2.50
2023-04-15T15:33:53.387Z,2.70
2023-04-15T15:36:16.306Z,3.27
2023-04-15T15:38:38.353Z,3.87
2023-04-15T15:41:00.189Z,3.83
2023-04-15T15:43:21.947Z,3.57
2023-04-15T15:45:43.811Z,4.17
2023-04-15T15:48:06.305Z,4.53
2023-04-15T15:50:28.579Z,2.23
2023-04-15T15:52:50.793Z,4.03
2023-04-15T15:55:12.509Z,4.20
2023-04-15T15:57:34.217Z,4.10
2023-04-15T16:00:10.392Z,2.93
2023-04-15T16:02:59.806Z,4.17
2023-04-15T16:05:16.630Z,2.93
2023-04-15T16:07:38.379Z,4.33
2023-04-15T16:10:00.441Z,4.43
2023-04-15T16:12:22.303Z,5.00
2023-04-15T16:14:44.046Z,4.37
2023-04-15T16:17:05.813Z,4.50
2023-04-15T16:19:27.678Z,2.30
2023-04-15T16:21:49.954Z,4.70
2023-04-15T16:24:11.742Z,3.67
2023-04-15T16:26:34.416Z,7.60
2023-04-15T16:28:56.235Z,5.13
2023-04-15T16:31:18.079Z,6.80
2023-04-15T16:33:40.011Z,6.67
2023-04-15T16:36:01.758Z,5.07
2023-04-15T16:38:23.419Z,5.17
2023-04-15T16:40:46.049Z,4.77
2023-04-15T16:43:08.294Z,3.83
2023-04-15T16:45:30.131Z,5.00
2023-04-15T16:47:52.002Z,4.57
2023-04-15T16:50:14.702Z,4.93
2023-04-15T16:52:36.883Z,4.93
2023-04-15T16:54:58.791Z,7.63
2023-04-15T16:57:20.751Z,4.07
2023-04-15T16:59:43.163Z,2.90
2023-04-15T17:02:04.933Z,4.23
2023-04-15T17:04:28.636Z,5.63
2023-04-15T17:06:51.258Z,4.40
2023-04-15T17:09:12.881Z,5.37
2023-04-15T17:11:35.175Z,4.13
2023-04-15T17:13:56.954Z,5.47
2023-04-15T17:16:18.724Z,6.10
2023-04-15T17:18:40.733Z,5.67
2023-04-15T17:21:02.541Z,4.40
2023-04-15T17:23:26.166Z,4.33
2023-04-15T17:25:47.984Z,9.90
2023-04-15T17:28:09.729Z,8.77
2023-04-15T17:30:33.071Z,4.33
2023-04-15T17:32:55.043Z,4.07
2023-04-15T17:35:17.185Z,5.73
2023-04-15T17:37:39.194Z,5.37
2023-04-15T17:40:00.991Z,5.17
2023-04-15T17:42:23.113Z,3.57
2023-04-15T17:44:46.007Z,4.30
2023-04-15T17:47:07.693Z,3.50
2023-04-15T17:49:30.765Z,5.80
2023-04-15T17:51:54.898Z,5.37
2023-04-15T17:54:16.888Z,5.95
2023-04-15T17:56:38.622Z,4.67
2023-04-15T17:59:02.481Z,6.07
2023-04-15T18:01:24.602Z,5.07
2023-04-15T18:03:46.627Z,8.27
2023-04-15T18:06:08.535Z,4.73
2023-04-15T18:08:31.450Z,6.20
2023-04-15T18:10:53.156Z,3.33
2023-04-15T18:13:15.979Z,4.00
2023-04-15T18:15:37.782Z,6.17
2023-04-15T18:18:00.347Z,6.17
2023-04-15T18:20:22.087Z,6.77
2023-04-15T18:22:43.920Z,8.30
2023-04-15T18:25:06.928Z,4.37
2023-04-15T18:27:32.194Z,4.78
2023-04-15T18:29:54.066Z,3.60
2023-04-15T18:32:15.835Z,4.70
2023-04-15T18:34:37.828Z,5.43
2023-04-15T18:37:01.537Z,7.77
2023-04-15T18:39:23.509Z,9.03
2023-04-15T18:41:45.311Z,9.27
2023-04-15T18:44:07.161Z,6.20
2023-04-15T18:46:29.285Z,6.50
2023-04-15T18:48:51.366Z,6.93
2023-04-15T18:51:13.295Z,9.93
2023-04-15T18:53:37.087Z,12.17
2023-04-15T18:56:01.710Z,3.87
2023-04-15T18:58:23.812Z,5.33
2023-04-15T19:00:46.496Z,7.90
2023-04-15T19:03:08.388Z,10.57
2023-04-15T19:05:31.013Z,6.97
2023-04-15T19:07:52.783Z,4.23
2023-04-15T19:10:14.435Z,7.27
2023-04-15T19:12:36.996Z,5.43
2023-04-15T19:14:58.886Z,8.47
2023-04-15T19:17:21.295Z,10.67
2023-04-15T19:19:43.659Z,7.10
2023-04-15T19:22:06.180Z,6.63
2023-04-15T19:24:27.992Z,5.47
2023-04-15T19:26:51.142Z,7.27
2023-04-15T19:29:12.864Z,5.33
2023-04-15T19:31:34.597Z,5.20
2023-04-15T19:33:56.770Z,8.27
2023-04-15T19:36:18.429Z,7.40
2023-04-15T19:38:40.359Z,6.07
2023-04-15T19:41:02.045Z,8.63
2023-04-15T19:43:25.156Z,4.90
2023-04-15T19:45:49.487Z,8.00
2023-04-15T19:48:11.324Z,8.90
2023-04-15T19:50:33.544Z,7.23
2023-04-15T19:52:56.484Z,7.77
2023-04-15T19:55:18.477Z,7.70
2023-04-15T19:57:40.926Z,4.03
2023-04-15T20:00:02.539Z,8.93
2023-04-15T20:02:29.243Z,5.10
2023-04-15T20:04:51.063Z,7.22
2023-04-15T20:07:12.679Z,5.67
2023-04-15T20:09:34.325Z,9.73
2023-04-15T20:12:46.715Z,3.80
2023-04-15T20:14:38.123Z,4.13
2023-04-15T20:17:00.657Z,5.73
2023-04-15T20:19:22.355Z,6.63
2023-04-15T20:21:44.393Z,4.77
2023-04-15T20:24:07.044Z,6.83
2023-04-15T20:26:28.860Z,6.80
2023-04-15T20:28:51.827Z,6.53
2023-04-15T20:31:13.555Z,8.27
2023-04-15T20:33:35.347Z,4.97
2023-04-15T20:35:57.079Z,6.90
2023-04-15T20:38:20.426Z,7.07
2023-04-15T20:40:42.428Z,6.77
2023-04-15T20:43:04.181Z,8.63
2023-04-15T20:45:26.770Z,6.20
2023-04-15T20:47:48.986Z,7.43
2023-04-15T20:50:11.730Z,7.97
2023-04-15T20:52:33.450Z,7.90
2023-04-15T20:54:55.641Z,7.33
2023-04-15T20:57:17.645Z,11.27
2023-04-15T20:59:39.301Z,6.80
2023-04-15T21:02:01.002Z,5.23
2023-04-15T21:04:24.396Z,6.27
2023-04-15T21:06:46.172Z,7.20
2023-04-15T21:09:08.686Z,9.07
2023-04-15T21:11:53.305Z,5.60
2023-04-15T21:14:17.088Z,9.37
2023-04-15T21:16:39.670Z,7.63
2023-04-15T21:19:01.371Z,6.97
2023-04-15T21:21:23.056Z,7.17
2023-04-15T21:23:44.795Z,8.17
2023-04-15T21:26:06.440Z,8.70
2023-04-15T21:28:28.447Z,8.27
2023-04-15T21:30:50.697Z,8.23
2023-04-15T21:33:12.383Z,7.03
2023-04-15T21:35:34.163Z,7.90
2023-04-15T21:37:56.255Z,4.50
2023-04-15T21:40:19.416Z,6.97
2023-04-15T21:42:41.676Z,8.40
2023-04-15T21:45:04.680Z,9.33
2023-04-15T21:47:26.852Z,7.70
2023-04-15T21:49:48.817Z,9.70
2023-04-15T21:52:10.673Z,7.77
2023-04-15T21:54:33.405Z,5.57
2023-04-15T21:56:55.195Z,7.30
2023-04-15T21:59:16.889Z,7.53
2023-04-15T22:01:39.457Z,7.47
2023-04-15T22:04:01.255Z,4.53
2023-04-15T22:06:23.062Z,5.13
2023-04-15T22:08:56.062Z,5.17
2023-04-15T22:11:36.604Z,7.23
2023-04-15T22:14:09.096Z,5.50
2023-04-15T22:16:41.084Z,6.67
2023-04-15T22:19:12.950Z,4.43
2023-04-15T22:21:44.692Z,6.07
2023-04-15T22:24:38.255Z,6.73
2023-04-15T22:27:08.601Z,5.90
2023-04-15T22:29:40.405Z,3.40
2023-04-15T22:32:12.203Z,6.50
2023-04-15T22:34:44.755Z,4.13
2023-04-15T22:37:16.522Z,4.40
2023-04-15T22:39:48.242Z,5.67
2023-04-15T22:42:20.807Z,6.93
2023-04-15T22:44:52.681Z,3.93
2023-04-15T22:47:24.439Z,4.67
2023-04-15T22:49:56.171Z,5.13
2023-04-15T22:52:31.008Z,3.63
2023-04-15T22:55:03.712Z,5.97
2023-04-15T22:57:35.433Z,6.03
2023-04-15T23:00:08.058Z,6.10
2023-04-15T23:02:40.040Z,10.03
2023-04-15T23:05:12.699Z,4.83
2023-04-15T23:07:45.104Z,5.60
2023-04-15T23:10:16.882Z,8.17
2023-04-15T23:12:48.951Z,6.30
2023-04-15T23:15:21.365Z,5.33
2023-04-15T23:17:53.123Z,5.57
2023-04-15T23:20:24.909Z,5.90
2023-04-15T23:22:56.621Z,5.33
2023-04-15T23:25:28.423Z,6.70
2023-04-15T23:28:00.355Z,6.37
2023-04-15T23:30:32.015Z,8.30
2023-04-15T23:33:05.081Z,7.27
2023-04-15T23:35:37.796Z,7.47
2023-04-15T23:38:09.750Z,6.73
2023-04-15T23:40:41.563Z,7.10
2023-04-15T23:43:13.460Z,8.67
2023-04-15T23:45:45.971Z,6.30
2023-04-15T23:48:18.096Z,9.63
2023-04-15T23:50:50.337Z,5.23
2023-04-15T23:53:22.115Z,7.63
2023-04-15T23:55:53.763Z,13.23
2023-04-15T23:58:25.805Z,7.67
